Chase Lake, New York
Current Conditions -  °F | °C
As of 1:58 AM on Saturday 20 Dec 2014 (Local Time) from KGTB Reporting Station
Clear Clear  
Wind Chill:   Ceiling: Unl
Heat Index: 11°   Visibility: 10mi
Dew Point:   Wind: 5mph
Humidity: 86%   Direction: 180°S
Pressure: 30.23"   Gusts: NA
Location:  43.7232°N, 75.2497°W
Report Text: KGTB 200658Z AUTO 18004KT 10SM CLR M11/M13 A3023 RMK AO2 SLP251 T11151134
Loading
Personal Weather Stations






























Interactive Weather Map New forecast layout! Learn more

10-Day Weather Forecast

Advertisements
Track Severe Weather on mobile